sensor_id;sensor_type;location;lat;lon;timestamp;P1;durP1;ratioP1;P2;durP2;ratioP2
73136;SDS011;61329;45.638;11.714;2022-08-11T00:01:16;4.00;;;1.73;;
73136;SDS011;61329;45.638;11.714;2022-08-11T00:03:47;3.27;;;1.70;;
73136;SDS011;61329;45.638;11.714;2022-08-11T00:06:24;5.25;;;1.88;;
73136;SDS011;61329;45.638;11.714;2022-08-11T00:08:55;3.65;;;1.70;;
73136;SDS011;61329;45.638;11.714;2022-08-11T00:11:30;4.03;;;1.73;;
73136;SDS011;61329;45.638;11.714;2022-08-11T00:14:01;3.20;;;1.40;;
73136;SDS011;61329;45.638;11.714;2022-08-11T00:16:29;3.47;;;1.50;;
73136;SDS011;61329;45.638;11.714;2022-08-11T00:18:57;4.60;;;2.20;;
73136;SDS011;61329;45.638;11.714;2022-08-11T00:21:25;3.90;;;1.83;;
73136;SDS011;61329;45.638;11.714;2022-08-11T00:23:59;3.83;;;1.77;;
73136;SDS011;61329;45.638;11.714;2022-08-11T00:26:26;3.65;;;1.80;;
73136;SDS011;61329;45.638;11.714;2022-08-11T00:28:53;4.23;;;1.73;;
73136;SDS011;61329;45.638;11.714;2022-08-11T00:31:25;3.83;;;1.70;;
73136;SDS011;61329;45.638;11.714;2022-08-11T00:33:54;5.95;;;2.05;;
73136;SDS011;61329;45.638;11.714;2022-08-11T00:36:25;4.75;;;1.70;;
73136;SDS011;61329;45.638;11.714;2022-08-11T00:39:03;4.03;;;1.80;;
73136;SDS011;61329;45.638;11.714;2022-08-11T00:41:38;4.63;;;2.00;;
73136;SDS011;61329;45.638;11.714;2022-08-11T00:47:58;3.85;;;1.80;;
73136;SDS011;61329;45.638;11.714;2022-08-11T00:50:02;3.53;;;1.70;;
73136;SDS011;61329;45.638;11.714;2022-08-11T01:11:53;5.72;;;1.65;;
73136;SDS011;61329;45.638;11.714;2022-08-11T01:23:25;5.22;;;1.80;;
73136;SDS011;61329;45.638;11.714;2022-08-11T01:29:03;3.65;;;1.73;;
73136;SDS011;61329;45.638;11.714;2022-08-11T01:37:57;3.92;;;1.77;;
73136;SDS011;61329;45.638;11.714;2022-08-11T01:41:04;3.00;;;1.50;;
73136;SDS011;61329;45.638;11.714;2022-08-11T01:43:59;2.97;;;1.58;;
73136;SDS011;61329;45.638;11.714;2022-08-11T01:50:08;3.10;;;1.60;;
73136;SDS011;61329;45.638;11.714;2022-08-11T01:55:36;3.45;;;1.70;;
73136;SDS011;61329;45.638;11.714;2022-08-11T02:07:32;2.85;;;1.58;;
73136;SDS011;61329;45.638;11.714;2022-08-11T02:16:47;3.70;;;1.90;;
73136;SDS011;61329;45.638;11.714;2022-08-11T02:22:57;3.30;;;1.70;;
73136;SDS011;61329;45.638;11.714;2022-08-11T02:26:06;3.30;;;1.60;;
73136;SDS011;61329;45.638;11.714;2022-08-11T02:28:45;3.80;;;1.80;;
73136;SDS011;61329;45.638;11.714;2022-08-11T02:31:24;3.58;;;1.67;;
73136;SDS011;61329;45.638;11.714;2022-08-11T02:34:34;3.07;;;1.63;;
73136;SDS011;61329;45.638;11.714;2022-08-11T02:48:04;4.50;;;1.60;;
73136;SDS011;61329;45.638;11.714;2022-08-11T02:57:20;3.80;;;1.70;;
73136;SDS011;61329;45.638;11.714;2022-08-11T03:00:05;5.10;;;2.05;;
73136;SDS011;61329;45.638;11.714;2022-08-11T03:08:39;3.30;;;1.50;;
73136;SDS011;61329;45.638;11.714;2022-08-11T03:11:49;3.05;;;1.75;;
73136;SDS011;61329;45.638;11.714;2022-08-11T03:17:56;4.80;;;1.60;;
73136;SDS011;61329;45.638;11.714;2022-08-11T03:20:44;4.10;;;1.70;;
73136;SDS011;61329;45.638;11.714;2022-08-11T03:26:09;3.20;;;1.70;;
73136;SDS011;61329;45.638;11.714;2022-08-11T03:34:30;3.08;;;1.60;;
73136;SDS011;61329;45.638;11.714;2022-08-11T03:46:09;3.77;;;2.00;;
73136;SDS011;61329;45.638;11.714;2022-08-11T03:51:52;4.15;;;1.65;;
73136;SDS011;61329;45.638;11.714;2022-08-11T04:17:49;4.78;;;2.15;;
73136;SDS011;61329;45.638;11.714;2022-08-11T04:28:22;5.27;;;2.20;;
73136;SDS011;61329;45.638;11.714;2022-08-11T04:36:34;5.55;;;2.00;;
73136;SDS011;61329;45.638;11.714;2022-08-11T04:39:45;4.93;;;2.03;;
73136;SDS011;61329;45.638;11.714;2022-08-11T04:42:54;3.47;;;1.70;;
73136;SDS011;61329;45.638;11.714;2022-08-11T04:46:00;4.63;;;1.83;;
73136;SDS011;61329;45.638;11.714;2022-08-11T04:52:27;3.67;;;1.80;;
73136;SDS011;61329;45.638;11.714;2022-08-11T04:58:51;3.30;;;1.70;;
73136;SDS011;61329;45.638;11.714;2022-08-11T05:16:58;3.85;;;1.80;;
73136;SDS011;61329;45.638;11.714;2022-08-11T05:19:48;5.32;;;1.85;;
73136;SDS011;61329;45.638;11.714;2022-08-11T05:22:33;5.65;;;1.90;;
73136;SDS011;61329;45.638;11.714;2022-08-11T05:25:24;5.40;;;1.90;;
73136;SDS011;61329;45.638;11.714;2022-08-11T05:28:17;4.23;;;2.17;;
73136;SDS011;61329;45.638;11.714;2022-08-11T05:31:12;4.82;;;1.95;;
73136;SDS011;61329;45.638;11.714;2022-08-11T05:37:13;4.75;;;2.20;;
73136;SDS011;61329;45.638;11.714;2022-08-11T05:40:15;4.68;;;2.25;;
73136;SDS011;61329;45.638;11.714;2022-08-11T05:43:13;6.07;;;2.27;;
73136;SDS011;61329;45.638;11.714;2022-08-11T05:46:41;6.38;;;2.00;;
73136;SDS011;61329;45.638;11.714;2022-08-11T05:49:33;12.88;;;2.42;;
73136;SDS011;61329;45.638;11.714;2022-08-11T05:52:39;4.72;;;2.00;;
73136;SDS011;61329;45.638;11.714;2022-08-11T05:55:28;4.70;;;2.17;;
73136;SDS011;61329;45.638;11.714;2022-08-11T05:58:14;4.23;;;1.90;;
73136;SDS011;61329;45.638;11.714;2022-08-11T06:00:44;5.25;;;1.95;;
73136;SDS011;61329;45.638;11.714;2022-08-11T06:03:24;4.70;;;1.70;;
73136;SDS011;61329;45.638;11.714;2022-08-11T06:05:54;6.00;;;2.00;;
73136;SDS011;61329;45.638;11.714;2022-08-11T06:08:30;6.82;;;2.10;;
73136;SDS011;61329;45.638;11.714;2022-08-11T06:11:03;5.80;;;2.00;;
73136;SDS011;61329;45.638;11.714;2022-08-11T06:13:32;6.75;;;1.95;;
73136;SDS011;61329;45.638;11.714;2022-08-11T06:16:09;4.82;;;2.10;;
73136;SDS011;61329;45.638;11.714;2022-08-11T06:18:39;5.40;;;1.73;;
73136;SDS011;61329;45.638;11.714;2022-08-11T06:21:11;6.68;;;1.92;;
73136;SDS011;61329;45.638;11.714;2022-08-11T06:23:38;4.70;;;1.80;;
73136;SDS011;61329;45.638;11.714;2022-08-11T06:26:09;4.75;;;2.13;;
73136;SDS011;61329;45.638;11.714;2022-08-11T06:28:39;6.13;;;1.95;;
73136;SDS011;61329;45.638;11.714;2022-08-11T06:31:18;4.13;;;1.75;;
73136;SDS011;61329;45.638;11.714;2022-08-11T06:44:19;4.90;;;1.60;;
73136;SDS011;61329;45.638;11.714;2022-08-11T06:46:52;4.47;;;1.90;;
73136;SDS011;61329;45.638;11.714;2022-08-11T06:49:21;3.88;;;1.75;;
73136;SDS011;61329;45.638;11.714;2022-08-11T06:52:14;6.45;;;1.80;;
73136;SDS011;61329;45.638;11.714;2022-08-11T06:54:49;4.70;;;1.80;;
73136;SDS011;61329;45.638;11.714;2022-08-11T06:57:29;4.97;;;2.03;;
73136;SDS011;61329;45.638;11.714;2022-08-11T07:00:19;4.80;;;1.63;;
73136;SDS011;61329;45.638;11.714;2022-08-11T07:03:09;4.88;;;1.70;;
73136;SDS011;61329;45.638;11.714;2022-08-11T07:14:51;8.27;;;2.00;;
73136;SDS011;61329;45.638;11.714;2022-08-11T07:17:43;4.82;;;1.90;;
73136;SDS011;61329;45.638;11.714;2022-08-11T07:20:13;5.82;;;1.90;;
73136;SDS011;61329;45.638;11.714;2022-08-11T07:23:00;6.32;;;2.10;;
73136;SDS011;61329;45.638;11.714;2022-08-11T07:25:49;4.32;;;1.70;;
73136;SDS011;61329;45.638;11.714;2022-08-11T07:28:36;4.87;;;1.83;;
73136;SDS011;61329;45.638;11.714;2022-08-11T07:31:51;6.28;;;1.77;;
73136;SDS011;61329;45.638;11.714;2022-08-11T07:34:22;4.35;;;1.90;;
73136;SDS011;61329;45.638;11.714;2022-08-11T07:36:58;5.38;;;1.88;;
73136;SDS011;61329;45.638;11.714;2022-08-11T07:39:28;3.92;;;1.70;;
73136;SDS011;61329;45.638;11.714;2022-08-11T07:41:57;5.40;;;2.00;;
73136;SDS011;61329;45.638;11.714;2022-08-11T07:44:25;6.75;;;2.10;;
73136;SDS011;61329;45.638;11.714;2022-08-11T07:46:53;5.10;;;1.88;;
73136;SDS011;61329;45.638;11.714;2022-08-11T07:49:39;3.92;;;1.75;;
73136;SDS011;61329;45.638;11.714;2022-08-11T07:52:27;4.47;;;1.70;;
73136;SDS011;61329;45.638;11.714;2022-08-11T07:55:06;7.10;;;2.07;;
73136;SDS011;61329;45.638;11.714;2022-08-11T07:57:37;5.22;;;1.70;;
73136;SDS011;61329;45.638;11.714;2022-08-11T08:00:22;7.35;;;1.90;;
73136;SDS011;61329;45.638;11.714;2022-08-11T08:03:08;7.00;;;2.05;;
73136;SDS011;61329;45.638;11.714;2022-08-11T08:05:55;5.45;;;1.83;;
73136;SDS011;61329;45.638;11.714;2022-08-11T08:08:41;4.27;;;1.87;;
73136;SDS011;61329;45.638;11.714;2022-08-11T08:11:25;5.40;;;1.90;;
73136;SDS011;61329;45.638;11.714;2022-08-11T08:14:10;4.65;;;1.70;;
73136;SDS011;61329;45.638;11.714;2022-08-11T08:16:55;5.32;;;1.83;;
73136;SDS011;61329;45.638;11.714;2022-08-11T08:19:45;5.75;;;1.60;;
73136;SDS011;61329;45.638;11.714;2022-08-11T08:22:15;4.87;;;2.00;;
73136;SDS011;61329;45.638;11.714;2022-08-11T08:24:43;4.07;;;1.80;;
73136;SDS011;61329;45.638;11.714;2022-08-11T08:27:11;5.45;;;2.05;;
73136;SDS011;61329;45.638;11.714;2022-08-11T08:29:38;4.47;;;1.70;;
73136;SDS011;61329;45.638;11.714;2022-08-11T08:32:24;5.35;;;1.67;;
73136;SDS011;61329;45.638;11.714;2022-08-11T08:34:52;3.67;;;1.50;;
73136;SDS011;61329;45.638;11.714;2022-08-11T08:37:20;4.63;;;1.70;;
73136;SDS011;61329;45.638;11.714;2022-08-11T08:39:54;4.88;;;1.70;;
73136;SDS011;61329;45.638;11.714;2022-08-11T08:42:30;6.93;;;1.83;;
73136;SDS011;61329;45.638;11.714;2022-08-11T08:45:07;3.95;;;1.73;;
73136;SDS011;61329;45.638;11.714;2022-08-11T08:47:37;4.20;;;1.80;;
73136;SDS011;61329;45.638;11.714;2022-08-11T08:50:11;4.60;;;1.70;;
73136;SDS011;61329;45.638;11.714;2022-08-11T08:52:46;4.25;;;1.67;;
73136;SDS011;61329;45.638;11.714;2022-08-11T08:55:23;3.30;;;1.60;;
73136;SDS011;61329;45.638;11.714;2022-08-11T08:58:03;3.72;;;1.60;;
73136;SDS011;61329;45.638;11.714;2022-08-11T09:00:37;4.60;;;1.73;;
73136;SDS011;61329;45.638;11.714;2022-08-11T09:03:10;4.43;;;1.80;;
73136;SDS011;61329;45.638;11.714;2022-08-11T09:05:38;3.92;;;1.60;;
73136;SDS011;61329;45.638;11.714;2022-08-11T09:08:07;4.63;;;1.70;;
73136;SDS011;61329;45.638;11.714;2022-08-11T09:10:34;4.38;;;1.70;;
73136;SDS011;61329;45.638;11.714;2022-08-11T09:13:02;3.40;;;1.50;;
73136;SDS011;61329;45.638;11.714;2022-08-11T09:15:30;3.90;;;1.60;;
73136;SDS011;61329;45.638;11.714;2022-08-11T09:17:58;4.13;;;1.70;;
73136;SDS011;61329;45.638;11.714;2022-08-11T09:20:33;4.18;;;1.92;;
73136;SDS011;61329;45.638;11.714;2022-08-11T09:23:07;4.82;;;1.63;;
73136;SDS011;61329;45.638;11.714;2022-08-11T09:25:54;4.50;;;1.60;;
73136;SDS011;61329;45.638;11.714;2022-08-11T09:28:44;4.15;;;1.70;;
73136;SDS011;61329;45.638;11.714;2022-08-11T09:31:12;4.45;;;1.52;;
73136;SDS011;61329;45.638;11.714;2022-08-11T09:33:39;2.97;;;1.35;;
73136;SDS011;61329;45.638;11.714;2022-08-11T09:36:07;3.90;;;1.70;;
73136;SDS011;61329;45.638;11.714;2022-08-11T09:38:53;4.30;;;1.50;;
73136;SDS011;61329;45.638;11.714;2022-08-11T09:41:40;3.42;;;1.60;;
73136;SDS011;61329;45.638;11.714;2022-08-11T09:44:26;4.25;;;1.50;;
73136;SDS011;61329;45.638;11.714;2022-08-11T09:47:25;4.32;;;1.80;;
73136;SDS011;61329;45.638;11.714;2022-08-11T09:50:00;3.33;;;1.40;;
73136;SDS011;61329;45.638;11.714;2022-08-11T09:52:34;3.97;;;1.87;;
73136;SDS011;61329;45.638;11.714;2022-08-11T09:55:02;5.85;;;1.73;;
73136;SDS011;61329;45.638;11.714;2022-08-11T09:57:39;5.47;;;1.70;;
73136;SDS011;61329;45.638;11.714;2022-08-11T10:00:36;5.30;;;2.10;;
73136;SDS011;61329;45.638;11.714;2022-08-11T10:03:09;3.20;;;1.50;;
73136;SDS011;61329;45.638;11.714;2022-08-11T10:05:43;3.93;;;1.60;;
73136;SDS011;61329;45.638;11.714;2022-08-11T10:08:33;3.50;;;1.42;;
73136;SDS011;61329;45.638;11.714;2022-08-11T10:11:05;4.38;;;1.80;;
73136;SDS011;61329;45.638;11.714;2022-08-11T10:13:36;4.50;;;1.90;;
73136;SDS011;61329;45.638;11.714;2022-08-11T10:16:26;3.65;;;1.70;;
73136;SDS011;61329;45.638;11.714;2022-08-11T10:18:54;7.00;;;2.43;;
73136;SDS011;61329;45.638;11.714;2022-08-11T10:23:55;4.40;;;1.98;;
73136;SDS011;61329;45.638;11.714;2022-08-11T10:26:42;4.53;;;1.90;;
73136;SDS011;61329;45.638;11.714;2022-08-11T10:32:24;5.77;;;1.90;;
73136;SDS011;61329;45.638;11.714;2022-08-11T10:35:10;5.47;;;2.05;;
73136;SDS011;61329;45.638;11.714;2022-08-11T10:37:38;4.68;;;2.00;;
73136;SDS011;61329;45.638;11.714;2022-08-11T10:40:09;6.05;;;2.13;;
73136;SDS011;61329;45.638;11.714;2022-08-11T10:42:39;6.50;;;2.13;;
73136;SDS011;61329;45.638;11.714;2022-08-11T10:45:25;4.87;;;2.40;;
73136;SDS011;61329;45.638;11.714;2022-08-11T10:48:09;5.13;;;2.20;;
73136;SDS011;61329;45.638;11.714;2022-08-11T10:50:36;5.00;;;2.10;;
73136;SDS011;61329;45.638;11.714;2022-08-11T10:53:21;4.82;;;2.40;;
73136;SDS011;61329;45.638;11.714;2022-08-11T10:56:06;6.97;;;2.40;;
73136;SDS011;61329;45.638;11.714;2022-08-11T10:58:51;5.90;;;2.53;;
73136;SDS011;61329;45.638;11.714;2022-08-11T11:01:24;5.95;;;2.50;;
73136;SDS011;61329;45.638;11.714;2022-08-11T11:04:06;5.03;;;2.20;;
73136;SDS011;61329;45.638;11.714;2022-08-11T11:09:12;5.88;;;2.40;;
73136;SDS011;61329;45.638;11.714;2022-08-11T11:11:50;5.87;;;2.43;;
73136;SDS011;61329;45.638;11.714;2022-08-11T11:14:40;7.07;;;2.50;;
73136;SDS011;61329;45.638;11.714;2022-08-11T11:17:31;6.82;;;2.47;;
73136;SDS011;61329;45.638;11.714;2022-08-11T11:20:28;7.85;;;2.65;;
73136;SDS011;61329;45.638;11.714;2022-08-11T11:23:03;7.90;;;2.55;;
73136;SDS011;61329;45.638;11.714;2022-08-11T11:25:51;6.33;;;2.70;;
73136;SDS011;61329;45.638;11.714;2022-08-11T11:34:10;7.53;;;3.03;;
73136;SDS011;61329;45.638;11.714;2022-08-11T11:36:56;7.25;;;2.80;;
73136;SDS011;61329;45.638;11.714;2022-08-11T11:39:27;8.10;;;3.00;;
73136;SDS011;61329;45.638;11.714;2022-08-11T11:41:56;6.22;;;2.58;;
73136;SDS011;61329;45.638;11.714;2022-08-11T11:44:25;6.47;;;2.70;;
73136;SDS011;61329;45.638;11.714;2022-08-11T11:46:52;6.90;;;2.47;;
73136;SDS011;61329;45.638;11.714;2022-08-11T11:49:23;7.00;;;2.40;;
73136;SDS011;61329;45.638;11.714;2022-08-11T11:51:52;5.63;;;2.47;;
73136;SDS011;61329;45.638;11.714;2022-08-11T11:54:24;6.57;;;2.10;;
73136;SDS011;61329;45.638;11.714;2022-08-11T11:56:52;5.70;;;2.53;;
73136;SDS011;61329;45.638;11.714;2022-08-11T11:59:20;6.75;;;2.35;;
73136;SDS011;61329;45.638;11.714;2022-08-11T12:02:08;5.78;;;2.28;;
73136;SDS011;61329;45.638;11.714;2022-08-11T12:04:36;4.97;;;2.10;;
73136;SDS011;61329;45.638;11.714;2022-08-11T12:07:08;5.72;;;2.10;;
73136;SDS011;61329;45.638;11.714;2022-08-11T12:09:54;6.13;;;2.00;;
73136;SDS011;61329;45.638;11.714;2022-08-11T12:12:21;11.45;;;2.50;;
73136;SDS011;61329;45.638;11.714;2022-08-11T12:15:07;5.10;;;2.00;;
73136;SDS011;61329;45.638;11.714;2022-08-11T12:17:35;7.57;;;2.20;;
73136;SDS011;61329;45.638;11.714;2022-08-11T12:20:03;5.47;;;2.10;;
73136;SDS011;61329;45.638;11.714;2022-08-11T12:22:31;4.18;;;1.75;;
73136;SDS011;61329;45.638;11.714;2022-08-11T12:25:17;4.25;;;1.73;;
73136;SDS011;61329;45.638;11.714;2022-08-11T12:28:02;5.45;;;2.00;;
73136;SDS011;61329;45.638;11.714;2022-08-11T12:30:28;4.47;;;1.80;;
73136;SDS011;61329;45.638;11.714;2022-08-11T12:32:55;4.43;;;1.73;;
73136;SDS011;61329;45.638;11.714;2022-08-11T12:35:22;4.82;;;2.10;;
73136;SDS011;61329;45.638;11.714;2022-08-11T12:37:49;5.97;;;1.92;;
73136;SDS011;61329;45.638;11.714;2022-08-11T12:40:28;4.25;;;1.80;;
73136;SDS011;61329;45.638;11.714;2022-08-11T12:43:19;6.13;;;1.70;;
73136;SDS011;61329;45.638;11.714;2022-08-11T12:46:22;4.35;;;1.70;;
73136;SDS011;61329;45.638;11.714;2022-08-11T12:49:10;4.88;;;1.80;;
73136;SDS011;61329;45.638;11.714;2022-08-11T12:52:09;5.90;;;2.42;;
73136;SDS011;61329;45.638;11.714;2022-08-11T12:58:10;5.30;;;1.70;;
73136;SDS011;61329;45.638;11.714;2022-08-11T13:01:07;4.35;;;1.90;;
73136;SDS011;61329;45.638;11.714;2022-08-11T13:04:13;5.07;;;1.90;;
73136;SDS011;61329;45.638;11.714;2022-08-11T13:07:24;4.38;;;1.50;;
73136;SDS011;61329;45.638;11.714;2022-08-11T13:10:03;3.65;;;1.40;;
73136;SDS011;61329;45.638;11.714;2022-08-11T13:12:31;5.13;;;1.90;;
73136;SDS011;61329;45.638;11.714;2022-08-11T13:15:22;7.68;;;1.65;;
73136;SDS011;61329;45.638;11.714;2022-08-11T13:17:50;3.72;;;1.35;;
73136;SDS011;61329;45.638;11.714;2022-08-11T13:20:20;4.20;;;1.60;;
73136;SDS011;61329;45.638;11.714;2022-08-11T13:22:48;2.90;;;1.38;;
73136;SDS011;61329;45.638;11.714;2022-08-11T13:25:17;5.20;;;1.67;;
73136;SDS011;61329;45.638;11.714;2022-08-11T13:27:47;3.88;;;1.45;;
73136;SDS011;61329;45.638;11.714;2022-08-11T13:30:16;4.15;;;1.70;;
73136;SDS011;61329;45.638;11.714;2022-08-11T13:33:02;5.43;;;1.60;;
73136;SDS011;61329;45.638;11.714;2022-08-11T13:35:30;3.10;;;1.42;;
73136;SDS011;61329;45.638;11.714;2022-08-11T13:37:57;3.43;;;1.50;;
73136;SDS011;61329;45.638;11.714;2022-08-11T13:40:26;3.67;;;1.42;;
73136;SDS011;61329;45.638;11.714;2022-08-11T13:42:55;3.38;;;1.30;;
73136;SDS011;61329;45.638;11.714;2022-08-11T13:45:23;3.58;;;1.42;;
73136;SDS011;61329;45.638;11.714;2022-08-11T13:47:50;4.38;;;1.50;;
73136;SDS011;61329;45.638;11.714;2022-08-11T13:50:20;3.07;;;1.27;;
73136;SDS011;61329;45.638;11.714;2022-08-11T13:53:07;4.22;;;1.45;;
73136;SDS011;61329;45.638;11.714;2022-08-11T13:55:40;3.85;;;1.50;;
73136;SDS011;61329;45.638;11.714;2022-08-11T13:58:11;5.30;;;1.48;;
73136;SDS011;61329;45.638;11.714;2022-08-11T14:00:42;3.40;;;1.40;;
73136;SDS011;61329;45.638;11.714;2022-08-11T14:03:11;4.20;;;1.30;;
73136;SDS011;61329;45.638;11.714;2022-08-11T14:05:39;3.35;;;1.50;;
73136;SDS011;61329;45.638;11.714;2022-08-11T14:08:18;3.20;;;1.30;;
73136;SDS011;61329;45.638;11.714;2022-08-11T14:10:47;2.92;;;1.38;;
73136;SDS011;61329;45.638;11.714;2022-08-11T14:13:38;3.28;;;1.45;;
73136;SDS011;61329;45.638;11.714;2022-08-11T14:16:11;5.33;;;1.20;;
73136;SDS011;61329;45.638;11.714;2022-08-11T14:18:44;3.55;;;1.55;;
73136;SDS011;61329;45.638;11.714;2022-08-11T14:21:14;3.28;;;1.40;;
73136;SDS011;61329;45.638;11.714;2022-08-11T14:24:00;4.22;;;1.40;;
73136;SDS011;61329;45.638;11.714;2022-08-11T14:26:28;3.88;;;1.35;;
73136;SDS011;61329;45.638;11.714;2022-08-11T14:29:04;4.30;;;1.20;;
73136;SDS011;61329;45.638;11.714;2022-08-11T14:31:32;2.47;;;1.13;;
73136;SDS011;61329;45.638;11.714;2022-08-11T14:34:01;3.17;;;1.33;;
73136;SDS011;61329;45.638;11.714;2022-08-11T14:36:30;3.05;;;1.20;;
73136;SDS011;61329;45.638;11.714;2022-08-11T14:39:10;3.78;;;1.38;;
73136;SDS011;61329;45.638;11.714;2022-08-11T14:41:42;3.20;;;1.23;;
73136;SDS011;61329;45.638;11.714;2022-08-11T14:44:29;2.95;;;1.30;;
73136;SDS011;61329;45.638;11.714;2022-08-11T14:47:17;3.17;;;1.30;;
73136;SDS011;61329;45.638;11.714;2022-08-11T14:49:43;3.63;;;1.30;;
73136;SDS011;61329;45.638;11.714;2022-08-11T14:52:11;4.00;;;1.20;;
73136;SDS011;61329;45.638;11.714;2022-08-11T14:54:43;3.53;;;1.30;;
73136;SDS011;61329;45.638;11.714;2022-08-11T14:57:37;3.55;;;1.33;;
73136;SDS011;61329;45.638;11.714;2022-08-11T15:00:07;3.78;;;1.30;;
73136;SDS011;61329;45.638;11.714;2022-08-11T15:02:37;3.63;;;1.20;;
73136;SDS011;61329;45.638;11.714;2022-08-11T15:05:24;3.30;;;1.10;;
73136;SDS011;61329;45.638;11.714;2022-08-11T15:07:53;2.83;;;1.30;;
73136;SDS011;61329;45.638;11.714;2022-08-11T15:10:22;3.50;;;1.20;;
73136;SDS011;61329;45.638;11.714;2022-08-11T15:12:54;2.65;;;1.23;;
73136;SDS011;61329;45.638;11.714;2022-08-11T15:15:27;2.55;;;1.25;;
73136;SDS011;61329;45.638;11.714;2022-08-11T15:18:22;2.55;;;1.27;;
73136;SDS011;61329;45.638;11.714;2022-08-11T15:20:51;2.53;;;1.20;;
73136;SDS011;61329;45.638;11.714;2022-08-11T15:23:37;3.10;;;1.40;;
73136;SDS011;61329;45.638;11.714;2022-08-11T15:26:31;3.30;;;1.30;;
73136;SDS011;61329;45.638;11.714;2022-08-11T15:29:24;3.95;;;1.35;;
73136;SDS011;61329;45.638;11.714;2022-08-11T15:32:12;4.07;;;1.20;;
73136;SDS011;61329;45.638;11.714;2022-08-11T15:34:50;3.40;;;1.30;;
73136;SDS011;61329;45.638;11.714;2022-08-11T15:37:40;3.00;;;1.30;;
73136;SDS011;61329;45.638;11.714;2022-08-11T15:40:10;3.45;;;1.33;;
73136;SDS011;61329;45.638;11.714;2022-08-11T15:44:00;4.00;;;1.45;;
73136;SDS011;61329;45.638;11.714;2022-08-11T15:46:49;3.80;;;1.40;;
73136;SDS011;61329;45.638;11.714;2022-08-11T15:49:21;4.20;;;1.55;;
73136;SDS011;61329;45.638;11.714;2022-08-11T15:52:00;2.65;;;1.20;;
73136;SDS011;61329;45.638;11.714;2022-08-11T15:54:32;2.80;;;1.30;;
73136;SDS011;61329;45.638;11.714;2022-08-11T15:57:00;3.70;;;1.33;;
73136;SDS011;61329;45.638;11.714;2022-08-11T15:59:32;2.33;;;1.10;;
73136;SDS011;61329;45.638;11.714;2022-08-11T16:02:19;4.13;;;1.60;;
73136;SDS011;61329;45.638;11.714;2022-08-11T16:05:01;3.63;;;1.35;;
73136;SDS011;61329;45.638;11.714;2022-08-11T16:07:31;4.03;;;1.42;;
73136;SDS011;61329;45.638;11.714;2022-08-11T16:10:05;2.95;;;1.40;;
73136;SDS011;61329;45.638;11.714;2022-08-11T16:12:36;5.77;;;1.50;;
73136;SDS011;61329;45.638;11.714;2022-08-11T16:15:49;2.80;;;1.20;;
73136;SDS011;61329;45.638;11.714;2022-08-11T16:18:55;3.25;;;1.23;;
73136;SDS011;61329;45.638;11.714;2022-08-11T16:21:23;3.05;;;1.30;;
73136;SDS011;61329;45.638;11.714;2022-08-11T16:23:59;3.35;;;1.17;;
73136;SDS011;61329;45.638;11.714;2022-08-11T16:26:29;3.63;;;1.30;;
73136;SDS011;61329;45.638;11.714;2022-08-11T16:28:57;2.92;;;1.38;;
73136;SDS011;61329;45.638;11.714;2022-08-11T16:31:26;2.40;;;1.00;;
73136;SDS011;61329;45.638;11.714;2022-08-11T16:33:57;3.95;;;1.23;;
73136;SDS011;61329;45.638;11.714;2022-08-11T16:36:52;3.65;;;1.25;;
73136;SDS011;61329;45.638;11.714;2022-08-11T16:39:38;2.60;;;1.23;;
73136;SDS011;61329;45.638;11.714;2022-08-11T16:42:05;4.18;;;1.25;;
73136;SDS011;61329;45.638;11.714;2022-08-11T16:44:52;3.15;;;1.13;;
73136;SDS011;61329;45.638;11.714;2022-08-11T16:47:39;3.13;;;1.38;;
73136;SDS011;61329;45.638;11.714;2022-08-11T16:50:07;3.08;;;1.10;;
73136;SDS011;61329;45.638;11.714;2022-08-11T16:52:34;3.07;;;1.13;;
73136;SDS011;61329;45.638;11.714;2022-08-11T16:55:01;2.92;;;1.10;;
73136;SDS011;61329;45.638;11.714;2022-08-11T16:57:29;2.80;;;1.20;;
73136;SDS011;61329;45.638;11.714;2022-08-11T17:00:15;3.50;;;1.30;;
73136;SDS011;61329;45.638;11.714;2022-08-11T17:02:49;6.18;;;1.20;;
73136;SDS011;61329;45.638;11.714;2022-08-11T17:05:35;3.47;;;1.30;;
73136;SDS011;61329;45.638;11.714;2022-08-11T17:08:36;4.20;;;1.27;;
73136;SDS011;61329;45.638;11.714;2022-08-11T17:11:38;4.45;;;1.27;;
73136;SDS011;61329;45.638;11.714;2022-08-11T17:14:37;4.15;;;1.10;;
73136;SDS011;61329;45.638;11.714;2022-08-11T17:17:26;3.03;;;1.30;;
73136;SDS011;61329;45.638;11.714;2022-08-11T17:20:02;2.73;;;1.30;;
73136;SDS011;61329;45.638;11.714;2022-08-11T17:22:35;3.30;;;1.30;;
73136;SDS011;61329;45.638;11.714;2022-08-11T17:25:21;2.95;;;0.93;;
73136;SDS011;61329;45.638;11.714;2022-08-11T17:27:52;3.78;;;1.30;;
73136;SDS011;61329;45.638;11.714;2022-08-11T17:30:20;2.95;;;1.20;;
73136;SDS011;61329;45.638;11.714;2022-08-11T17:33:10;4.07;;;1.20;;
73136;SDS011;61329;45.638;11.714;2022-08-11T17:35:55;3.03;;;1.23;;
73136;SDS011;61329;45.638;11.714;2022-08-11T17:38:22;4.78;;;1.13;;
73136;SDS011;61329;45.638;11.714;2022-08-11T17:40:56;4.40;;;1.60;;
73136;SDS011;61329;45.638;11.714;2022-08-11T17:43:44;7.53;;;1.77;;
73136;SDS011;61329;45.638;11.714;2022-08-11T17:46:29;9.30;;;2.40;;
73136;SDS011;61329;45.638;11.714;2022-08-11T17:49:15;8.40;;;2.33;;
73136;SDS011;61329;45.638;11.714;2022-08-11T17:51:44;6.05;;;2.42;;
73136;SDS011;61329;45.638;11.714;2022-08-11T17:54:32;9.25;;;2.13;;
73136;SDS011;61329;45.638;11.714;2022-08-11T17:57:22;6.88;;;2.65;;
73136;SDS011;61329;45.638;11.714;2022-08-11T18:00:14;7.57;;;2.50;;
73136;SDS011;61329;45.638;11.714;2022-08-11T18:03:04;19.02;;;3.05;;
73136;SDS011;61329;45.638;11.714;2022-08-11T18:06:00;6.95;;;2.15;;
73136;SDS011;61329;45.638;11.714;2022-08-11T18:08:54;7.72;;;2.38;;
73136;SDS011;61329;45.638;11.714;2022-08-11T18:11:56;6.15;;;2.00;;
73136;SDS011;61329;45.638;11.714;2022-08-11T18:14:57;9.70;;;1.97;;
73136;SDS011;61329;45.638;11.714;2022-08-11T18:17:53;6.75;;;2.20;;
73136;SDS011;61329;45.638;11.714;2022-08-11T18:20:59;6.97;;;2.05;;
73136;SDS011;61329;45.638;11.714;2022-08-11T18:24:04;6.22;;;2.28;;
73136;SDS011;61329;45.638;11.714;2022-08-11T18:27:03;6.05;;;1.60;;
73136;SDS011;61329;45.638;11.714;2022-08-11T18:30:05;4.20;;;1.67;;
73136;SDS011;61329;45.638;11.714;2022-08-11T18:33:06;5.18;;;1.70;;
73136;SDS011;61329;45.638;11.714;2022-08-11T18:36:05;3.92;;;1.58;;
73136;SDS011;61329;45.638;11.714;2022-08-11T18:39:08;4.90;;;1.60;;
73136;SDS011;61329;45.638;11.714;2022-08-11T18:42:01;5.57;;;1.50;;
73136;SDS011;61329;45.638;11.714;2022-08-11T18:44:59;6.07;;;1.93;;
73136;SDS011;61329;45.638;11.714;2022-08-11T18:47:47;6.60;;;2.30;;
73136;SDS011;61329;45.638;11.714;2022-08-11T18:50:35;6.10;;;1.90;;
73136;SDS011;61329;45.638;11.714;2022-08-11T18:53:21;5.40;;;1.65;;
73136;SDS011;61329;45.638;11.714;2022-08-11T18:56:08;5.10;;;1.50;;
73136;SDS011;61329;45.638;11.714;2022-08-11T18:58:54;5.63;;;1.67;;
73136;SDS011;61329;45.638;11.714;2022-08-11T19:01:40;6.45;;;1.60;;
73136;SDS011;61329;45.638;11.714;2022-08-11T19:04:28;5.75;;;1.70;;
73136;SDS011;61329;45.638;11.714;2022-08-11T19:07:18;5.00;;;1.60;;
73136;SDS011;61329;45.638;11.714;2022-08-11T19:10:17;6.22;;;1.70;;
73136;SDS011;61329;45.638;11.714;2022-08-11T19:13:06;6.33;;;1.70;;
73136;SDS011;61329;45.638;11.714;2022-08-11T19:16:04;4.97;;;1.70;;
73136;SDS011;61329;45.638;11.714;2022-08-11T19:18:55;5.38;;;1.92;;
73136;SDS011;61329;45.638;11.714;2022-08-11T19:21:44;5.22;;;1.77;;
73136;SDS011;61329;45.638;11.714;2022-08-11T19:24:35;6.72;;;1.65;;